sensor_id;sensor_type;location;lat;lon;timestamp;pressure;altitude;pressure_sealevel;temperature;humidity
20616;BME280;10467;42.338;23.552;2022-09-09T00:00:18;91225.06;;;13.71;100.00
20616;BME280;10467;42.338;23.552;2022-09-09T00:03:37;91226.16;;;13.79;100.00
20616;BME280;10467;42.338;23.552;2022-09-09T00:06:05;91227.53;;;13.85;100.00
20616;BME280;10467;42.338;23.552;2022-09-09T00:09:10;91231.97;;;13.81;100.00
20616;BME280;10467;42.338;23.552;2022-09-09T00:11:48;91226.81;;;13.67;100.00
20616;BME280;10467;42.338;23.552;2022-09-09T00:14:40;91220.69;;;13.67;100.00
20616;BME280;10467;42.338;23.552;2022-09-09T00:17:06;91219.09;;;13.66;100.00
20616;BME280;10467;42.338;23.552;2022-09-09T00:22:20;91211.94;;;13.49;100.00
20616;BME280;10467;42.338;23.552;2022-09-09T00:24:52;91219.47;;;13.47;100.00
20616;BME280;10467;42.338;23.552;2022-09-09T00:30:20;91218.25;;;13.44;100.00
20616;BME280;10467;42.338;23.552;2022-09-09T00:32:49;91226.25;;;13.44;100.00
20616;BME280;10467;42.338;23.552;2022-09-09T00:37:46;91220.78;;;13.32;100.00
20616;BME280;10467;42.338;23.552;2022-09-09T00:40:28;91224.56;;;13.31;100.00
20616;BME280;10467;42.338;23.552;2022-09-09T00:43:28;91219.66;;;13.33;100.00
20616;BME280;10467;42.338;23.552;2022-09-09T00:49:04;91206.31;;;13.33;100.00
20616;BME280;10467;42.338;23.552;2022-09-09T00:51:45;91215.59;;;13.27;100.00
20616;BME280;10467;42.338;23.552;2022-09-09T01:02:27;91208.84;;;13.21;100.00
20616;BME280;10467;42.338;23.552;2022-09-09T01:04:54;91206.63;;;13.23;100.00
20616;BME280;10467;42.338;23.552;2022-09-09T01:07:20;91195.16;;;13.14;100.00
20616;BME280;10467;42.338;23.552;2022-09-09T01:09:55;91200.19;;;13.15;100.00
20616;BME280;10467;42.338;23.552;2022-09-09T01:12:41;91202.06;;;13.24;100.00
20616;BME280;10467;42.338;23.552;2022-09-09T01:15:10;91186.22;;;13.27;100.00
20616;BME280;10467;42.338;23.552;2022-09-09T01:17:55;91190.88;;;13.39;100.00
20616;BME280;10467;42.338;23.552;2022-09-09T01:20:29;91180.97;;;13.39;100.00
20616;BME280;10467;42.338;23.552;2022-09-09T01:26:24;91187.59;;;13.33;100.00
20616;BME280;10467;42.338;23.552;2022-09-09T01:28:52;91176.31;;;13.28;100.00
20616;BME280;10467;42.338;23.552;2022-09-09T01:31:42;91179.31;;;13.26;100.00
20616;BME280;10467;42.338;23.552;2022-09-09T01:34:12;91189.50;;;13.33;100.00
20616;BME280;10467;42.338;23.552;2022-09-09T01:36:43;91181.16;;;13.34;100.00
20616;BME280;10467;42.338;23.552;2022-09-09T01:39:10;91195.09;;;13.48;100.00
20616;BME280;10467;42.338;23.552;2022-09-09T01:41:37;91189.91;;;13.52;100.00
20616;BME280;10467;42.338;23.552;2022-09-09T01:44:02;91183.66;;;13.39;100.00
20616;BME280;10467;42.338;23.552;2022-09-09T01:46:28;91178.03;;;13.24;100.00
20616;BME280;10467;42.338;23.552;2022-09-09T01:48:55;91196.28;;;13.13;100.00
20616;BME280;10467;42.338;23.552;2022-09-09T01:51:21;91196.41;;;13.08;100.00
20616;BME280;10467;42.338;23.552;2022-09-09T01:53:47;91198.94;;;13.13;100.00
20616;BME280;10467;42.338;23.552;2022-09-09T02:01:58;91204.78;;;12.98;100.00
20616;BME280;10467;42.338;23.552;2022-09-09T02:07:00;91206.00;;;12.92;100.00
20616;BME280;10467;42.338;23.552;2022-09-09T02:09:26;91202.41;;;12.87;100.00
20616;BME280;10467;42.338;23.552;2022-09-09T02:12:01;91209.00;;;12.90;100.00
20616;BME280;10467;42.338;23.552;2022-09-09T02:14:32;91208.38;;;12.84;100.00
20616;BME280;10467;42.338;23.552;2022-09-09T02:17:03;91198.19;;;12.69;100.00
20616;BME280;10467;42.338;23.552;2022-09-09T02:19:36;91212.28;;;12.44;100.00
20616;BME280;10467;42.338;23.552;2022-09-09T02:22:03;91209.44;;;12.23;100.00
20616;BME280;10467;42.338;23.552;2022-09-09T02:24:31;91204.19;;;11.92;100.00
20616;BME280;10467;42.338;23.552;2022-09-09T02:27:00;91203.31;;;11.74;100.00
20616;BME280;10467;42.338;23.552;2022-09-09T02:29:34;91198.84;;;11.52;100.00
20616;BME280;10467;42.338;23.552;2022-09-09T02:32:03;91203.97;;;11.49;100.00
20616;BME280;10467;42.338;23.552;2022-09-09T02:34:33;91191.59;;;11.44;100.00
20616;BME280;10467;42.338;23.552;2022-09-09T02:37:03;91198.50;;;11.45;100.00
20616;BME280;10467;42.338;23.552;2022-09-09T02:39:29;91199.19;;;11.59;100.00
20616;BME280;10467;42.338;23.552;2022-09-09T02:41:54;91197.50;;;11.72;100.00
20616;BME280;10467;42.338;23.552;2022-09-09T02:44:20;91204.09;;;11.75;100.00
20616;BME280;10467;42.338;23.552;2022-09-09T02:52:12;91207.00;;;11.95;100.00
20616;BME280;10467;42.338;23.552;2022-09-09T02:54:41;91209.69;;;11.95;100.00
20616;BME280;10467;42.338;23.552;2022-09-09T02:57:16;91207.00;;;11.95;100.00
20616;BME280;10467;42.338;23.552;2022-09-09T02:59:44;91197.13;;;11.96;100.00
20616;BME280;10467;42.338;23.552;2022-09-09T03:02:10;91194.94;;;11.98;100.00
20616;BME280;10467;42.338;23.552;2022-09-09T03:04:37;91200.28;;;11.98;100.00
20616;BME280;10467;42.338;23.552;2022-09-09T03:07:03;91204.38;;;12.13;100.00
20616;BME280;10467;42.338;23.552;2022-09-09T03:09:29;91207.84;;;12.13;100.00
20616;BME280;10467;42.338;23.552;2022-09-09T03:11:55;91199.38;;;12.11;100.00
20616;BME280;10467;42.338;23.552;2022-09-09T03:14:21;91193.13;;;12.16;100.00
20616;BME280;10467;42.338;23.552;2022-09-09T03:16:50;91191.06;;;12.13;100.00
20616;BME280;10467;42.338;23.552;2022-09-09T03:19:16;91194.38;;;12.18;100.00
20616;BME280;10467;42.338;23.552;2022-09-09T03:21:41;91197.16;;;12.13;100.00
20616;BME280;10467;42.338;23.552;2022-09-09T03:24:06;91197.31;;;12.08;100.00
20616;BME280;10467;42.338;23.552;2022-09-09T03:26:32;91198.88;;;12.09;100.00
20616;BME280;10467;42.338;23.552;2022-09-09T03:28:58;91198.72;;;12.06;100.00
20616;BME280;10467;42.338;23.552;2022-09-09T03:31:25;91191.63;;;11.92;100.00
20616;BME280;10467;42.338;23.552;2022-09-09T03:33:51;91206.38;;;11.98;100.00
20616;BME280;10467;42.338;23.552;2022-09-09T03:36:17;91206.56;;;12.02;100.00
20616;BME280;10467;42.338;23.552;2022-09-09T03:38:42;91211.28;;;12.05;100.00
20616;BME280;10467;42.338;23.552;2022-09-09T03:41:08;91203.75;;;12.07;100.00
20616;BME280;10467;42.338;23.552;2022-09-09T03:43:34;91205.81;;;12.19;100.00
20616;BME280;10467;42.338;23.552;2022-09-09T03:46:00;91209.13;;;12.24;100.00
20616;BME280;10467;42.338;23.552;2022-09-09T03:48:26;91214.31;;;12.21;100.00
20616;BME280;10467;42.338;23.552;2022-09-09T03:50:54;91215.38;;;12.11;100.00
20616;BME280;10467;42.338;23.552;2022-09-09T03:53:22;91204.22;;;12.01;100.00
20616;BME280;10467;42.338;23.552;2022-09-09T03:55:51;91208.56;;;11.96;100.00
20616;BME280;10467;42.338;23.552;2022-09-09T03:58:21;91213.13;;;11.96;100.00
20616;BME280;10467;42.338;23.552;2022-09-09T04:01:13;91214.13;;;11.78;100.00
20616;BME280;10467;42.338;23.552;2022-09-09T04:03:39;91207.03;;;11.64;100.00
20616;BME280;10467;42.338;23.552;2022-09-09T04:06:05;91219.25;;;11.65;100.00
20616;BME280;10467;42.338;23.552;2022-09-09T04:08:32;91215.03;;;11.64;100.00
20616;BME280;10467;42.338;23.552;2022-09-09T04:10:59;91208.28;;;11.58;100.00
20616;BME280;10467;42.338;23.552;2022-09-09T04:13:25;91210.56;;;11.51;100.00
20616;BME280;10467;42.338;23.552;2022-09-09T04:15:56;91205.75;;;11.53;100.00
20616;BME280;10467;42.338;23.552;2022-09-09T04:18:23;91217.50;;;11.52;100.00
20616;BME280;10467;42.338;23.552;2022-09-09T04:20:52;91215.00;;;11.56;100.00
20616;BME280;10467;42.338;23.552;2022-09-09T04:23:18;91216.59;;;11.65;100.00
20616;BME280;10467;42.338;23.552;2022-09-09T04:25:50;91215.22;;;11.77;100.00
20616;BME280;10467;42.338;23.552;2022-09-09T04:28:17;91218.41;;;11.79;100.00
20616;BME280;10467;42.338;23.552;2022-09-09T04:30:44;91212.19;;;11.92;100.00
20616;BME280;10467;42.338;23.552;2022-09-09T04:33:10;91210.81;;;12.03;100.00
20616;BME280;10467;42.338;23.552;2022-09-09T04:35:36;91213.50;;;12.20;100.00
20616;BME280;10467;42.338;23.552;2022-09-09T04:38:02;91205.69;;;12.33;100.00
20616;BME280;10467;42.338;23.552;2022-09-09T04:40:29;91215.13;;;12.56;100.00
20616;BME280;10467;42.338;23.552;2022-09-09T04:42:55;91192.69;;;12.74;100.00
20616;BME280;10467;42.338;23.552;2022-09-09T04:45:20;91197.50;;;13.15;100.00
20616;BME280;10467;42.338;23.552;2022-09-09T04:47:46;91187.56;;;13.51;100.00
20616;BME280;10467;42.338;23.552;2022-09-09T04:50:11;91196.09;;;13.82;100.00
20616;BME280;10467;42.338;23.552;2022-09-09T04:52:37;91200.78;;;13.85;100.00
20616;BME280;10467;42.338;23.552;2022-09-09T04:55:03;91198.22;;;13.97;100.00
20616;BME280;10467;42.338;23.552;2022-09-09T04:57:29;91195.22;;;14.28;100.00
20616;BME280;10467;42.338;23.552;2022-09-09T04:59:57;91200.00;;;16.17;100.00
20616;BME280;10467;42.338;23.552;2022-09-09T05:02:23;91204.56;;;18.21;100.00
20616;BME280;10467;42.338;23.552;2022-09-09T05:04:48;91205.72;;;19.41;100.00
20616;BME280;10467;42.338;23.552;2022-09-09T05:07:15;91219.47;;;19.94;100.00
20616;BME280;10467;42.338;23.552;2022-09-09T05:09:40;91202.44;;;20.85;89.77
20616;BME280;10467;42.338;23.552;2022-09-09T05:12:06;91205.63;;;20.42;87.62
20616;BME280;10467;42.338;23.552;2022-09-09T05:14:31;91206.63;;;18.75;100.00
20616;BME280;10467;42.338;23.552;2022-09-09T05:16:57;91188.69;;;18.16;100.00
20616;BME280;10467;42.338;23.552;2022-09-09T05:19:23;91184.81;;;19.38;100.00
20616;BME280;10467;42.338;23.552;2022-09-09T05:21:48;91175.47;;;21.49;84.34
20616;BME280;10467;42.338;23.552;2022-09-09T05:24:15;91186.56;;;23.79;67.97
20616;BME280;10467;42.338;23.552;2022-09-09T05:26:40;91189.47;;;25.07;60.06
20616;BME280;10467;42.338;23.552;2022-09-09T05:29:06;91184.03;;;24.83;58.73
20616;BME280;10467;42.338;23.552;2022-09-09T05:31:31;91180.72;;;25.84;55.40
20616;BME280;10467;42.338;23.552;2022-09-09T05:33:58;91173.53;;;26.15;53.46
20616;BME280;10467;42.338;23.552;2022-09-09T05:36:24;91170.75;;;26.25;52.89
20616;BME280;10467;42.338;23.552;2022-09-09T05:38:50;91167.59;;;27.34;50.72
20616;BME280;10467;42.338;23.552;2022-09-09T05:41:16;91157.56;;;29.04;47.07
20616;BME280;10467;42.338;23.552;2022-09-09T05:43:43;91164.00;;;29.60;45.94
20616;BME280;10467;42.338;23.552;2022-09-09T05:46:16;91160.78;;;29.85;44.54
20616;BME280;10467;42.338;23.552;2022-09-09T05:48:44;91163.63;;;30.37;43.46
20616;BME280;10467;42.338;23.552;2022-09-09T05:51:16;91169.50;;;29.37;45.67
20616;BME280;10467;42.338;23.552;2022-09-09T05:53:43;91168.31;;;30.01;44.65
20616;BME280;10467;42.338;23.552;2022-09-09T05:56:10;91165.41;;;31.62;42.83
20616;BME280;10467;42.338;23.552;2022-09-09T05:58:36;91159.78;;;31.36;42.44
20616;BME280;10467;42.338;23.552;2022-09-09T06:01:07;91161.59;;;29.19;45.86
20616;BME280;10467;42.338;23.552;2022-09-09T06:03:38;91173.28;;;29.00;46.54
20616;BME280;10467;42.338;23.552;2022-09-09T06:06:06;91175.13;;;29.93;45.30
20616;BME280;10467;42.338;23.552;2022-09-09T06:08:37;91179.56;;;29.87;44.74
20616;BME280;10467;42.338;23.552;2022-09-09T06:11:12;91177.94;;;29.69;45.08
20616;BME280;10467;42.338;23.552;2022-09-09T06:13:38;91181.19;;;30.96;43.23
20616;BME280;10467;42.338;23.552;2022-09-09T06:16:09;91173.88;;;32.54;40.42
20616;BME280;10467;42.338;23.552;2022-09-09T06:18:36;91179.28;;;34.03;37.78
20616;BME280;10467;42.338;23.552;2022-09-09T06:21:04;91181.28;;;32.95;38.39
20616;BME280;10467;42.338;23.552;2022-09-09T06:23:30;91178.50;;;33.33;38.66
20616;BME280;10467;42.338;23.552;2022-09-09T06:26:26;91181.31;;;35.58;36.03
20616;BME280;10467;42.338;23.552;2022-09-09T06:28:53;91187.06;;;36.09;35.20
20616;BME280;10467;42.338;23.552;2022-09-09T06:31:22;91194.59;;;36.54;34.47
20616;BME280;10467;42.338;23.552;2022-09-09T06:33:49;91188.81;;;37.37;33.23
20616;BME280;10467;42.338;23.552;2022-09-09T06:36:17;91199.03;;;36.61;34.35
20616;BME280;10467;42.338;23.552;2022-09-09T06:38:43;91191.72;;;37.09;33.29
20616;BME280;10467;42.338;23.552;2022-09-09T06:41:11;91193.63;;;36.94;33.48
20616;BME280;10467;42.338;23.552;2022-09-09T06:43:37;91182.53;;;36.94;34.20
20616;BME280;10467;42.338;23.552;2022-09-09T06:46:06;91189.81;;;37.25;33.03
20616;BME280;10467;42.338;23.552;2022-09-09T06:48:43;91181.13;;;36.89;33.12
20616;BME280;10467;42.338;23.552;2022-09-09T06:51:14;91185.16;;;36.79;33.46
20616;BME280;10467;42.338;23.552;2022-09-09T06:53:41;91190.31;;;37.47;33.10
20616;BME280;10467;42.338;23.552;2022-09-09T06:58:40;91194.84;;;37.35;33.05
20616;BME280;10467;42.338;23.552;2022-09-09T07:01:13;91181.84;;;38.22;31.99
20616;BME280;10467;42.338;23.552;2022-09-09T07:03:40;91191.97;;;38.64;32.16
20616;BME280;10467;42.338;23.552;2022-09-09T07:06:09;91199.34;;;39.26;30.49
20616;BME280;10467;42.338;23.552;2022-09-09T07:08:39;91194.66;;;37.39;32.17
20616;BME280;10467;42.338;23.552;2022-09-09T07:11:07;91185.56;;;37.38;32.92
20616;BME280;10467;42.338;23.552;2022-09-09T07:13:34;91188.75;;;37.79;32.40
20616;BME280;10467;42.338;23.552;2022-09-09T07:16:07;91185.50;;;36.63;34.21
20616;BME280;10467;42.338;23.552;2022-09-09T07:18:33;91185.38;;;36.30;32.80
20616;BME280;10467;42.338;23.552;2022-09-09T07:21:00;91199.84;;;36.07;33.44
20616;BME280;10467;42.338;23.552;2022-09-09T07:23:27;91198.28;;;35.96;34.06
20616;BME280;10467;42.338;23.552;2022-09-09T07:25:53;91184.53;;;36.84;32.62
20616;BME280;10467;42.338;23.552;2022-09-09T07:28:21;91191.59;;;39.01;31.00
20616;BME280;10467;42.338;23.552;2022-09-09T07:30:58;91196.56;;;39.76;30.18
20616;BME280;10467;42.338;23.552;2022-09-09T07:33:25;91182.88;;;39.93;30.06
20616;BME280;10467;42.338;23.552;2022-09-09T07:35:52;91187.25;;;38.55;31.26
20616;BME280;10467;42.338;23.552;2022-09-09T07:38:19;91193.28;;;40.13;29.65
20616;BME280;10467;42.338;23.552;2022-09-09T07:40:45;91195.34;;;39.77;29.88
20616;BME280;10467;42.338;23.552;2022-09-09T07:43:11;91192.38;;;39.66;29.83
20616;BME280;10467;42.338;23.552;2022-09-09T07:45:37;91178.19;;;40.91;28.99
20616;BME280;10467;42.338;23.552;2022-09-09T07:48:03;91172.75;;;40.82;28.79
20616;BME280;10467;42.338;23.552;2022-09-09T07:50:29;91181.06;;;40.51;29.15
20616;BME280;10467;42.338;23.552;2022-09-09T07:52:55;91177.59;;;41.82;28.20
20616;BME280;10467;42.338;23.552;2022-09-09T07:55:22;91177.88;;;41.84;27.78
20616;BME280;10467;42.338;23.552;2022-09-09T07:57:51;91186.41;;;39.23;30.25
20616;BME280;10467;42.338;23.552;2022-09-09T08:00:17;91181.81;;;39.20;31.05
20616;BME280;10467;42.338;23.552;2022-09-09T08:02:44;91175.47;;;39.69;30.26
20616;BME280;10467;42.338;23.552;2022-09-09T08:05:10;91176.84;;;41.13;28.98
20616;BME280;10467;42.338;23.552;2022-09-09T08:07:36;91174.03;;;41.13;28.96
20616;BME280;10467;42.338;23.552;2022-09-09T08:10:03;91188.63;;;39.89;30.14
20616;BME280;10467;42.338;23.552;2022-09-09T08:12:28;91184.78;;;39.31;31.08
20616;BME280;10467;42.338;23.552;2022-09-09T08:14:53;91182.97;;;39.98;29.58
20616;BME280;10467;42.338;23.552;2022-09-09T08:17:19;91188.28;;;39.46;30.64
20616;BME280;10467;42.338;23.552;2022-09-09T08:19:45;91191.31;;;40.85;29.25
20616;BME280;10467;42.338;23.552;2022-09-09T08:22:10;91190.25;;;39.61;30.50
20616;BME280;10467;42.338;23.552;2022-09-09T08:24:36;91175.28;;;36.87;33.61
20616;BME280;10467;42.338;23.552;2022-09-09T08:27:01;91171.88;;;36.32;34.22
20616;BME280;10467;42.338;23.552;2022-09-09T08:29:27;91176.88;;;35.69;35.09
20616;BME280;10467;42.338;23.552;2022-09-09T08:31:57;91161.72;;;33.75;37.46
20616;BME280;10467;42.338;23.552;2022-09-09T08:34:23;91164.41;;;33.06;38.82
20616;BME280;10467;42.338;23.552;2022-09-09T08:36:51;91163.97;;;32.82;39.87
20616;BME280;10467;42.338;23.552;2022-09-09T08:39:18;91162.94;;;32.51;39.93
20616;BME280;10467;42.338;23.552;2022-09-09T08:48:18;91155.16;;;36.59;35.04
20616;BME280;10467;42.338;23.552;2022-09-09T08:50:45;91170.22;;;37.28;33.87
20616;BME280;10467;42.338;23.552;2022-09-09T08:53:27;91169.75;;;37.54;33.68
20616;BME280;10467;42.338;23.552;2022-09-09T08:55:58;91163.38;;;36.36;34.44
20616;BME280;10467;42.338;23.552;2022-09-09T08:58:33;91171.66;;;35.81;35.44
20616;BME280;10467;42.338;23.552;2022-09-09T09:11:45;91171.28;;;37.31;33.15
20616;BME280;10467;42.338;23.552;2022-09-09T09:14:20;91165.13;;;37.84;32.58
20616;BME280;10467;42.338;23.552;2022-09-09T09:17:06;91161.03;;;36.62;33.66
20616;BME280;10467;42.338;23.552;2022-09-09T09:19:35;91162.91;;;36.19;35.25
20616;BME280;10467;42.338;23.552;2022-09-09T09:30:19;91164.38;;;37.50;32.94
20616;BME280;10467;42.338;23.552;2022-09-09T09:32:56;91163.50;;;36.50;34.23
20616;BME280;10467;42.338;23.552;2022-09-09T09:35:23;91165.97;;;38.14;31.48
20616;BME280;10467;42.338;23.552;2022-09-09T09:37:49;91163.09;;;38.08;32.07
20616;BME280;10467;42.338;23.552;2022-09-09T09:40:17;91156.41;;;40.03;30.69
20616;BME280;10467;42.338;23.552;2022-09-09T09:43:03;91151.88;;;40.72;29.51
20616;BME280;10467;42.338;23.552;2022-09-09T09:45:34;91154.34;;;41.59;28.59
20616;BME280;10467;42.338;23.552;2022-09-09T09:48:09;91153.22;;;40.56;29.11
20616;BME280;10467;42.338;23.552;2022-09-09T09:50:35;91157.88;;;36.87;33.39
20616;BME280;10467;42.338;23.552;2022-09-09T09:56:01;91149.69;;;36.32;33.76
20616;BME280;10467;42.338;23.552;2022-09-09T09:58:29;91155.22;;;36.32;35.46
20616;BME280;10467;42.338;23.552;2022-09-09T10:00:56;91146.22;;;38.35;32.30
20616;BME280;10467;42.338;23.552;2022-09-09T10:03:30;91141.78;;;38.44;32.30
20616;BME280;10467;42.338;23.552;2022-09-09T10:05:57;91134.78;;;38.63;31.41
20616;BME280;10467;42.338;23.552;2022-09-09T10:08:27;91132.53;;;38.08;32.33
20616;BME280;10467;42.338;23.552;2022-09-09T10:19:32;91133.41;;;33.15;38.71
20616;BME280;10467;42.338;23.552;2022-09-09T10:22:08;91131.69;;;32.83;38.53
20616;BME280;10467;42.338;23.552;2022-09-09T10:32:46;91153.81;;;35.14;34.39
20616;BME280;10467;42.338;23.552;2022-09-09T10:38:11;91155.34;;;35.55;34.46
20616;BME280;10467;42.338;23.552;2022-09-09T10:40:42;91154.94;;;35.84;33.85
20616;BME280;10467;42.338;23.552;2022-09-09T10:51:28;91143.66;;;33.14;38.15
20616;BME280;10467;42.338;23.552;2022-09-09T10:54:31;91138.13;;;32.51;39.05
20616;BME280;10467;42.338;23.552;2022-09-09T10:57:04;91147.00;;;32.04;39.88
20616;BME280;10467;42.338;23.552;2022-09-09T10:59:45;91145.50;;;31.70;40.87
20616;BME280;10467;42.338;23.552;2022-09-09T11:02:27;91151.72;;;30.64;42.63
20616;BME280;10467;42.338;23.552;2022-09-09T11:08:01;91143.72;;;29.11;46.64
20616;BME280;10467;42.338;23.552;2022-09-09T11:12:45;91134.75;;;29.10;46.62
20616;BME280;10467;42.338;23.552;2022-09-09T11:15:18;91133.78;;;29.20;45.10
20616;BME280;10467;42.338;23.552;2022-09-09T11:17:53;91142.28;;;28.79;47.34
20616;BME280;10467;42.338;23.552;2022-09-09T11:20:21;91146.97;;;28.28;49.09
20616;BME280;10467;42.338;23.552;2022-09-09T11:22:55;91148.44;;;27.72;50.27
20616;BME280;10467;42.338;23.552;2022-09-09T11:25:26;91149.84;;;27.15;53.74
20616;BME280;10467;42.338;23.552;2022-09-09T11:28:00;91135.69;;;26.83;54.95
20616;BME280;10467;42.338;23.552;2022-09-09T11:39:33;91138.81;;;28.21;54.05
20616;BME280;10467;42.338;23.552;2022-09-09T11:44:33;91148.13;;;29.51;51.20
20616;BME280;10467;42.338;23.552;2022-09-09T11:46:59;91148.00;;;29.98;50.93
20616;BME280;10467;42.338;23.552;2022-09-09T11:49:38;91147.69;;;29.30;51.38
20616;BME280;10467;42.338;23.552;2022-09-09T11:55:11;91142.78;;;30.92;48.20
20616;BME280;10467;42.338;23.552;2022-09-09T11:57:38;91142.63;;;30.83;48.52
20616;BME280;10467;42.338;23.552;2022-09-09T12:00:05;91139.38;;;30.36;49.55
20616;BME280;10467;42.338;23.552;2022-09-09T12:02:30;91131.19;;;30.16;50.55
20616;BME280;10467;42.338;23.552;2022-09-09T12:05:07;91130.00;;;30.69;49.77
20616;BME280;10467;42.338;23.552;2022-09-09T12:07:57;91129.91;;;30.73;49.56
20616;BME280;10467;42.338;23.552;2022-09-09T12:10:28;91117.34;;;29.84;50.42
20616;BME280;10467;42.338;23.552;2022-09-09T12:12:54;91115.50;;;29.14;52.15
20616;BME280;10467;42.338;23.552;2022-09-09T12:15:22;91111.03;;;28.26;54.08
20616;BME280;10467;42.338;23.552;2022-09-09T12:17:50;91111.72;;;28.03;55.17
20616;BME280;10467;42.338;23.552;2022-09-09T12:20:36;91106.19;;;27.80;55.63
20616;BME280;10467;42.338;23.552;2022-09-09T12:26:16;91104.72;;;26.55;61.13
20616;BME280;10467;42.338;23.552;2022-09-09T12:34:42;91093.38;;;26.05;68.03
20616;BME280;10467;42.338;23.552;2022-09-09T12:37:35;91090.34;;;26.51;65.65
20616;BME280;10467;42.338;23.552;2022-09-09T12:42:28;91078.63;;;26.92;63.68
20616;BME280;10467;42.338;23.552;2022-09-09T12:47:26;91072.13;;;26.79;63.93
20616;BME280;10467;42.338;23.552;2022-09-09T12:49:55;91070.84;;;27.28;63.14
20616;BME280;10467;42.338;23.552;2022-09-09T12:52:32;91058.16;;;27.45;61.21
20616;BME280;10467;42.338;23.552;2022-09-09T12:55:04;91064.19;;;27.33;60.63
20616;BME280;10467;42.338;23.552;2022-09-09T12:57:39;91060.31;;;27.91;57.50
20616;BME280;10467;42.338;23.552;2022-09-09T13:05:21;91069.81;;;26.36;67.09
20616;BME280;10467;42.338;23.552;2022-09-09T13:07:47;91059.03;;;26.11;67.95
20616;BME280;10467;42.338;23.552;2022-09-09T13:10:14;91062.81;;;25.65;72.51
20616;BME280;10467;42.338;23.552;2022-09-09T13:12:41;91068.31;;;25.55;74.16
20616;BME280;10467;42.338;23.552;2022-09-09T13:15:19;91068.41;;;25.41;75.70
20616;BME280;10467;42.338;23.552;2022-09-09T13:17:51;91071.91;;;25.41;80.98
20616;BME280;10467;42.338;23.552;2022-09-09T13:20:19;91070.09;;;25.06;81.06
20616;BME280;10467;42.338;23.552;2022-09-09T13:22:48;91065.84;;;24.76;83.40
20616;BME280;10467;42.338;23.552;2022-09-09T13:25:21;91064.31;;;24.61;86.94
20616;BME280;10467;42.338;23.552;2022-09-09T13:30:25;91067.09;;;24.40;89.53
20616;BME280;10467;42.338;23.552;2022-09-09T13:33:01;91067.09;;;24.33;90.63
20616;BME280;10467;42.338;23.552;2022-09-09T13:35:28;91058.91;;;24.22;92.05
20616;BME280;10467;42.338;23.552;2022-09-09T13:37:53;91063.94;;;24.13;94.51
20616;BME280;10467;42.338;23.552;2022-09-09T13:40:21;91060.88;;;24.18;95.13
20616;BME280;10467;42.338;23.552;2022-09-09T13:42:47;91055.41;;;24.07;95.58
20616;BME280;10467;42.338;23.552;2022-09-09T13:45:21;91054.66;;;24.17;95.19
20616;BME280;10467;42.338;23.552;2022-09-09T13:47:49;91050.78;;;24.36;94.64
20616;BME280;10467;42.338;23.552;2022-09-09T13:50:26;91048.84;;;24.33;95.19
20616;BME280;10467;42.338;23.552;2022-09-09T13:52:54;91044.19;;;24.30;100.00
20616;BME280;10467;42.338;23.552;2022-09-09T13:55:22;91047.25;;;24.43;100.00
20616;BME280;10467;42.338;23.552;2022-09-09T13:58:02;91044.53;;;24.54;100.00
20616;BME280;10467;42.338;23.552;2022-09-09T14:00:32;91035.97;;;24.55;100.00
20616;BME280;10467;42.338;23.552;2022-09-09T14:02:59;91034.03;;;24.66;100.00
20616;BME280;10467;42.338;23.552;2022-09-09T14:05:29;91031.66;;;24.79;100.00
20616;BME280;10467;42.338;23.552;2022-09-09T14:07:55;91033.09;;;25.19;100.00
20616;BME280;10467;42.338;23.552;2022-09-09T14:10:21;91026.44;;;25.31;98.48
20616;BME280;10467;42.338;23.552;2022-09-09T14:12:47;91015.81;;;25.51;91.66
20616;BME280;10467;42.338;23.552;2022-09-09T14:15:13;91015.31;;;25.70;88.28
20616;BME280;10467;42.338;23.552;2022-09-09T14:17:39;91011.28;;;25.23;91.97
20616;BME280;10467;42.338;23.552;2022-09-09T14:20:06;90998.97;;;25.70;92.26
20616;BME280;10467;42.338;23.552;2022-09-09T14:22:33;90994.88;;;26.00;83.24
20616;BME280;10467;42.338;23.552;2022-09-09T14:24:58;91000.31;;;26.00;77.06
20616;BME280;10467;42.338;23.552;2022-09-09T14:27:24;90999.22;;;26.42;75.74
20616;BME280;10467;42.338;23.552;2022-09-09T14:29:51;91002.50;;;26.64;71.53
20616;BME280;10467;42.338;23.552;2022-09-09T14:32:16;90999.75;;;26.64;69.78
20616;BME280;10467;42.338;23.552;2022-09-09T14:34:42;90994.53;;;27.14;66.88
20616;BME280;10467;42.338;23.552;2022-09-09T14:37:07;90991.28;;;27.26;69.61
20616;BME280;10467;42.338;23.552;2022-09-09T14:39:33;90993.28;;;27.22;71.06
20616;BME280;10467;42.338;23.552;2022-09-09T14:41:58;90999.09;;;26.90;72.77
20616;BME280;10467;42.338;23.552;2022-09-09T14:44:24;90985.25;;;26.36;74.30
20616;BME280;10467;42.338;23.552;2022-09-09T14:46:49;90976.22;;;25.94;78.07
20616;BME280;10467;42.338;23.552;2022-09-09T14:49:19;90988.75;;;25.88;85.13
20616;BME280;10467;42.338;23.552;2022-09-09T14:51:45;90994.47;;;26.05;80.63
20616;BME280;10467;42.338;23.552;2022-09-09T14:54:10;90997.38;;;25.76;81.51
20616;BME280;10467;42.338;23.552;2022-09-09T14:56:36;90994.28;;;25.74;81.56
20616;BME280;10467;42.338;23.552;2022-09-09T14:59:01;90997.00;;;26.26;80.57
20616;BME280;10467;42.338;23.552;2022-09-09T15:01:28;90982.22;;;27.02;70.97
20616;BME280;10467;42.338;23.552;2022-09-09T15:03:55;90993.09;;;27.67;68.57
20616;BME280;10467;42.338;23.552;2022-09-09T15:06:22;90997.22;;;28.52;63.88
20616;BME280;10467;42.338;23.552;2022-09-09T15:08:50;91007.59;;;28.88;61.45
20616;BME280;10467;42.338;23.552;2022-09-09T15:11:16;91009.66;;;29.04;59.51
20616;BME280;10467;42.338;23.552;2022-09-09T15:13:42;91010.41;;;29.80;58.13